sensor_id;sensor_type;location;lat;lon;timestamp;P1;durP1;ratioP1;P2;durP2;ratioP2
12451;SDS011;6291;48.924;12.204;2022-12-07T00:04:18;6.13;;;5.53;;
12451;SDS011;6291;48.924;12.204;2022-12-07T00:09:22;6.43;;;5.28;;
12451;SDS011;6291;48.924;12.204;2022-12-07T00:14:26;5.80;;;5.15;;
12451;SDS011;6291;48.924;12.204;2022-12-07T00:19:30;6.13;;;5.00;;
12451;SDS011;6291;48.924;12.204;2022-12-07T00:24:34;5.22;;;4.50;;
12451;SDS011;6291;48.924;12.204;2022-12-07T00:29:38;5.30;;;4.80;;
12451;SDS011;6291;48.924;12.204;2022-12-07T00:34:42;7.55;;;5.47;;
12451;SDS011;6291;48.924;12.204;2022-12-07T00:39:45;5.50;;;5.00;;
12451;SDS011;6291;48.924;12.204;2022-12-07T00:44:50;5.72;;;5.00;;
12451;SDS011;6291;48.924;12.204;2022-12-07T00:49:53;5.40;;;4.82;;
12451;SDS011;6291;48.924;12.204;2022-12-07T00:54:57;5.40;;;4.90;;
12451;SDS011;6291;48.924;12.204;2022-12-07T01:00:01;5.22;;;4.70;;
12451;SDS011;6291;48.924;12.204;2022-12-07T01:05:06;5.43;;;4.80;;
12451;SDS011;6291;48.924;12.204;2022-12-07T01:10:10;5.00;;;4.50;;
12451;SDS011;6291;48.924;12.204;2022-12-07T01:15:15;7.30;;;4.70;;
12451;SDS011;6291;48.924;12.204;2022-12-07T01:20:18;5.20;;;4.70;;
12451;SDS011;6291;48.924;12.204;2022-12-07T01:25:21;6.00;;;4.60;;
12451;SDS011;6291;48.924;12.204;2022-12-07T01:30:26;5.47;;;4.87;;
12451;SDS011;6291;48.924;12.204;2022-12-07T01:35:30;6.27;;;4.90;;
12451;SDS011;6291;48.924;12.204;2022-12-07T01:40:36;5.10;;;4.60;;
12451;SDS011;6291;48.924;12.204;2022-12-07T01:45:41;5.72;;;4.72;;
12451;SDS011;6291;48.924;12.204;2022-12-07T01:50:45;5.32;;;4.82;;
12451;SDS011;6291;48.924;12.204;2022-12-07T01:55:53;5.90;;;4.93;;
12451;SDS011;6291;48.924;12.204;2022-12-07T02:00:59;6.28;;;5.63;;
12451;SDS011;6291;48.924;12.204;2022-12-07T02:06:03;5.90;;;5.30;;
12451;SDS011;6291;48.924;12.204;2022-12-07T02:11:08;4.97;;;4.23;;
12451;SDS011;6291;48.924;12.204;2022-12-07T02:16:16;5.95;;;4.97;;
12451;SDS011;6291;48.924;12.204;2022-12-07T02:21:28;5.75;;;5.15;;
12451;SDS011;6291;48.924;12.204;2022-12-07T02:26:43;5.82;;;5.10;;
12451;SDS011;6291;48.924;12.204;2022-12-07T02:32:03;6.00;;;5.40;;
12451;SDS011;6291;48.924;12.204;2022-12-07T02:37:14;6.03;;;5.43;;
12451;SDS011;6291;48.924;12.204;2022-12-07T02:42:25;4.85;;;4.40;;
12451;SDS011;6291;48.924;12.204;2022-12-07T02:47:35;4.45;;;4.05;;
12451;SDS011;6291;48.924;12.204;2022-12-07T02:52:40;4.25;;;3.85;;
12451;SDS011;6291;48.924;12.204;2022-12-07T02:57:49;6.40;;;4.45;;
12451;SDS011;6291;48.924;12.204;2022-12-07T03:03:06;5.23;;;4.30;;
12451;SDS011;6291;48.924;12.204;2022-12-07T03:08:13;5.00;;;4.50;;
12451;SDS011;6291;48.924;12.204;2022-12-07T03:13:25;4.40;;;3.60;;
12451;SDS011;6291;48.924;12.204;2022-12-07T03:18:35;4.37;;;3.97;;
12451;SDS011;6291;48.924;12.204;2022-12-07T03:23:41;5.50;;;5.00;;
12451;SDS011;6291;48.924;12.204;2022-12-07T03:28:49;5.75;;;5.15;;
12451;SDS011;6291;48.924;12.204;2022-12-07T03:33:57;6.30;;;5.70;;
12451;SDS011;6291;48.924;12.204;2022-12-07T03:39:07;6.72;;;6.00;;
12451;SDS011;6291;48.924;12.204;2022-12-07T03:44:18;6.10;;;5.50;;
12451;SDS011;6291;48.924;12.204;2022-12-07T03:49:25;6.03;;;5.40;;
12451;SDS011;6291;48.924;12.204;2022-12-07T03:54:31;7.32;;;5.88;;
12451;SDS011;6291;48.924;12.204;2022-12-07T03:59:39;7.25;;;6.43;;
12451;SDS011;6291;48.924;12.204;2022-12-07T04:04:45;7.37;;;6.57;;
12451;SDS011;6291;48.924;12.204;2022-12-07T04:09:49;8.75;;;6.45;;
12451;SDS011;6291;48.924;12.204;2022-12-07T04:14:52;6.97;;;6.28;;
12451;SDS011;6291;48.924;12.204;2022-12-07T04:19:57;6.93;;;6.22;;
12451;SDS011;6291;48.924;12.204;2022-12-07T04:25:01;6.25;;;5.40;;
12451;SDS011;6291;48.924;12.204;2022-12-07T04:30:06;8.05;;;6.30;;
12451;SDS011;6291;48.924;12.204;2022-12-07T04:35:11;12.55;;;8.75;;
12451;SDS011;6291;48.924;12.204;2022-12-07T04:40:15;7.70;;;6.90;;
12451;SDS011;6291;48.924;12.204;2022-12-07T04:45:18;7.13;;;6.40;;
12451;SDS011;6291;48.924;12.204;2022-12-07T04:50:23;7.70;;;6.37;;
12451;SDS011;6291;48.924;12.204;2022-12-07T04:55:26;8.00;;;7.00;;
12451;SDS011;6291;48.924;12.204;2022-12-07T05:00:30;8.90;;;7.50;;
12451;SDS011;6291;48.924;12.204;2022-12-07T05:05:35;8.83;;;7.20;;
12451;SDS011;6291;48.924;12.204;2022-12-07T05:10:39;11.98;;;8.40;;
12451;SDS011;6291;48.924;12.204;2022-12-07T05:15:42;9.85;;;7.95;;
12451;SDS011;6291;48.924;12.204;2022-12-07T05:20:47;9.65;;;7.85;;
12451;SDS011;6291;48.924;12.204;2022-12-07T05:25:52;10.43;;;8.67;;
12451;SDS011;6291;48.924;12.204;2022-12-07T05:30:55;9.43;;;8.30;;
12451;SDS011;6291;48.924;12.204;2022-12-07T05:36:02;11.17;;;9.03;;
12451;SDS011;6291;48.924;12.204;2022-12-07T05:41:07;12.40;;;9.20;;
12451;SDS011;6291;48.924;12.204;2022-12-07T05:46:32;12.10;;;10.00;;
12451;SDS011;6291;48.924;12.204;2022-12-07T05:56:40;13.43;;;11.07;;
12451;SDS011;6291;48.924;12.204;2022-12-07T06:01:44;12.93;;;10.70;;
12451;SDS011;6291;48.924;12.204;2022-12-07T06:06:48;12.93;;;10.03;;
12451;SDS011;6291;48.924;12.204;2022-12-07T06:11:53;13.23;;;10.10;;
12451;SDS011;6291;48.924;12.204;2022-12-07T06:17:15;12.43;;;10.20;;
12451;SDS011;6291;48.924;12.204;2022-12-07T06:22:19;14.90;;;11.33;;
12451;SDS011;6291;48.924;12.204;2022-12-07T06:27:24;16.65;;;11.20;;
12451;SDS011;6291;48.924;12.204;2022-12-07T06:32:27;12.68;;;10.45;;
12451;SDS011;6291;48.924;12.204;2022-12-07T06:37:30;14.32;;;11.00;;
12451;SDS011;6291;48.924;12.204;2022-12-07T06:42:35;13.40;;;10.23;;
12451;SDS011;6291;48.924;12.204;2022-12-07T06:47:38;13.95;;;11.40;;
12451;SDS011;6291;48.924;12.204;2022-12-07T06:52:46;14.77;;;11.20;;
12451;SDS011;6291;48.924;12.204;2022-12-07T06:57:51;15.10;;;11.73;;
12451;SDS011;6291;48.924;12.204;2022-12-07T07:02:54;14.20;;;10.80;;
12451;SDS011;6291;48.924;12.204;2022-12-07T07:07:58;15.40;;;11.55;;
12451;SDS011;6291;48.924;12.204;2022-12-07T07:13:22;14.32;;;11.27;;
12451;SDS011;6291;48.924;12.204;2022-12-07T07:18:26;16.88;;;12.18;;
12451;SDS011;6291;48.924;12.204;2022-12-07T07:23:30;17.33;;;12.10;;
12451;SDS011;6291;48.924;12.204;2022-12-07T07:28:35;16.75;;;12.38;;
12451;SDS011;6291;48.924;12.204;2022-12-07T07:33:38;16.10;;;12.23;;
12451;SDS011;6291;48.924;12.204;2022-12-07T07:38:42;16.50;;;12.48;;
12451;SDS011;6291;48.924;12.204;2022-12-07T07:43:46;15.93;;;12.23;;
12451;SDS011;6291;48.924;12.204;2022-12-07T07:48:50;15.77;;;11.40;;
12451;SDS011;6291;48.924;12.204;2022-12-07T07:53:54;15.55;;;12.25;;
12451;SDS011;6291;48.924;12.204;2022-12-07T07:58:59;12.15;;;9.43;;
12451;SDS011;6291;48.924;12.204;2022-12-07T08:04:02;10.98;;;8.65;;
12451;SDS011;6291;48.924;12.204;2022-12-07T08:09:05;12.57;;;10.33;;
12451;SDS011;6291;48.924;12.204;2022-12-07T08:14:11;13.52;;;10.85;;
12451;SDS011;6291;48.924;12.204;2022-12-07T08:19:14;12.02;;;10.07;;
12451;SDS011;6291;48.924;12.204;2022-12-07T08:24:17;9.90;;;8.53;;
12451;SDS011;6291;48.924;12.204;2022-12-07T08:29:22;11.57;;;9.23;;
12451;SDS011;6291;48.924;12.204;2022-12-07T08:34:25;15.82;;;11.05;;
12451;SDS011;6291;48.924;12.204;2022-12-07T08:39:29;10.97;;;9.13;;
12451;SDS011;6291;48.924;12.204;2022-12-07T08:44:34;10.53;;;9.43;;
12451;SDS011;6291;48.924;12.204;2022-12-07T08:49:38;11.27;;;9.18;;
12451;SDS011;6291;48.924;12.204;2022-12-07T08:54:44;10.37;;;8.40;;
12451;SDS011;6291;48.924;12.204;2022-12-07T08:59:49;9.20;;;6.00;;
12451;SDS011;6291;48.924;12.204;2022-12-07T09:04:53;10.77;;;8.48;;
12451;SDS011;6291;48.924;12.204;2022-12-07T09:09:56;10.98;;;8.98;;
12451;SDS011;6291;48.924;12.204;2022-12-07T09:15:02;12.52;;;9.77;;
12451;SDS011;6291;48.924;12.204;2022-12-07T09:20:06;9.00;;;6.63;;
12451;SDS011;6291;48.924;12.204;2022-12-07T09:25:10;9.63;;;8.15;;
12451;SDS011;6291;48.924;12.204;2022-12-07T09:30:15;9.88;;;7.95;;
12451;SDS011;6291;48.924;12.204;2022-12-07T09:35:18;9.48;;;7.65;;
12451;SDS011;6291;48.924;12.204;2022-12-07T09:40:22;9.20;;;8.05;;
12451;SDS011;6291;48.924;12.204;2022-12-07T09:45:30;8.65;;;7.68;;
12451;SDS011;6291;48.924;12.204;2022-12-07T09:50:36;10.32;;;7.85;;
12451;SDS011;6291;48.924;12.204;2022-12-07T09:55:40;9.02;;;6.90;;
12451;SDS011;6291;48.924;12.204;2022-12-07T10:00:46;10.27;;;8.33;;
12451;SDS011;6291;48.924;12.204;2022-12-07T10:05:51;10.90;;;8.30;;
12451;SDS011;6291;48.924;12.204;2022-12-07T10:10:55;10.88;;;8.43;;
12451;SDS011;6291;48.924;12.204;2022-12-07T10:16:00;10.82;;;9.48;;
12451;SDS011;6291;48.924;12.204;2022-12-07T10:21:12;12.23;;;8.85;;
12451;SDS011;6291;48.924;12.204;2022-12-07T10:26:25;11.10;;;9.73;;
12451;SDS011;6291;48.924;12.204;2022-12-07T10:31:32;9.87;;;8.50;;
12451;SDS011;6291;48.924;12.204;2022-12-07T10:36:42;12.07;;;8.77;;
12451;SDS011;6291;48.924;12.204;2022-12-07T10:41:54;11.43;;;8.60;;
12451;SDS011;6291;48.924;12.204;2022-12-07T10:47:10;9.45;;;8.23;;
12451;SDS011;6291;48.924;12.204;2022-12-07T10:52:29;8.98;;;7.75;;
12451;SDS011;6291;48.924;12.204;2022-12-07T10:58:01;10.40;;;8.23;;
12451;SDS011;6291;48.924;12.204;2022-12-07T11:03:24;8.63;;;6.30;;
12451;SDS011;6291;48.924;12.204;2022-12-07T11:08:44;9.85;;;7.85;;
12451;SDS011;6291;48.924;12.204;2022-12-07T11:13:59;9.77;;;7.70;;
12451;SDS011;6291;48.924;12.204;2022-12-07T11:19:14;9.45;;;7.45;;
12451;SDS011;6291;48.924;12.204;2022-12-07T11:24:31;15.75;;;11.23;;
12451;SDS011;6291;48.924;12.204;2022-12-07T11:29:51;9.38;;;7.50;;
12451;SDS011;6291;48.924;12.204;2022-12-07T11:35:17;8.15;;;6.55;;
12451;SDS011;6291;48.924;12.204;2022-12-07T11:40:31;7.32;;;6.25;;
12451;SDS011;6291;48.924;12.204;2022-12-07T11:45:39;7.32;;;6.38;;
12451;SDS011;6291;48.924;12.204;2022-12-07T11:50:47;7.18;;;5.70;;
12451;SDS011;6291;48.924;12.204;2022-12-07T11:55:54;7.70;;;6.05;;
12451;SDS011;6291;48.924;12.204;2022-12-07T12:01:01;8.45;;;6.72;;
12451;SDS011;6291;48.924;12.204;2022-12-07T12:06:17;8.65;;;7.00;;
12451;SDS011;6291;48.924;12.204;2022-12-07T12:11:25;10.95;;;7.90;;
12451;SDS011;6291;48.924;12.204;2022-12-07T12:16:57;8.40;;;7.07;;
12451;SDS011;6291;48.924;12.204;2022-12-07T12:22:14;8.25;;;6.63;;
12451;SDS011;6291;48.924;12.204;2022-12-07T12:27:21;9.18;;;6.90;;
12451;SDS011;6291;48.924;12.204;2022-12-07T12:32:31;9.95;;;7.80;;
12451;SDS011;6291;48.924;12.204;2022-12-07T12:37:43;9.60;;;7.40;;
12451;SDS011;6291;48.924;12.204;2022-12-07T12:42:47;10.18;;;7.63;;
12451;SDS011;6291;48.924;12.204;2022-12-07T12:47:56;14.25;;;8.73;;
12451;SDS011;6291;48.924;12.204;2022-12-07T12:53:11;8.65;;;6.97;;
12451;SDS011;6291;48.924;12.204;2022-12-07T12:58:31;8.25;;;6.72;;
12451;SDS011;6291;48.924;12.204;2022-12-07T13:03:39;8.48;;;6.68;;
12451;SDS011;6291;48.924;12.204;2022-12-07T13:08:57;10.13;;;7.73;;
12451;SDS011;6291;48.924;12.204;2022-12-07T13:25:05;9.05;;;7.20;;
12451;SDS011;6291;48.924;12.204;2022-12-07T13:30:13;10.50;;;7.70;;
12451;SDS011;6291;48.924;12.204;2022-12-07T13:35:27;8.73;;;6.72;;
12451;SDS011;6291;48.924;12.204;2022-12-07T13:40:33;14.70;;;9.77;;
12451;SDS011;6291;48.924;12.204;2022-12-07T13:45:36;9.70;;;6.67;;
12451;SDS011;6291;48.924;12.204;2022-12-07T13:50:53;9.07;;;6.75;;
12451;SDS011;6291;48.924;12.204;2022-12-07T13:56:01;6.78;;;4.13;;
12451;SDS011;6291;48.924;12.204;2022-12-07T14:01:05;12.27;;;8.43;;
12451;SDS011;6291;48.924;12.204;2022-12-07T14:06:17;8.75;;;6.00;;
12451;SDS011;6291;48.924;12.204;2022-12-07T14:11:28;9.48;;;6.90;;
12451;SDS011;6291;48.924;12.204;2022-12-07T14:16:33;12.53;;;9.33;;
12451;SDS011;6291;48.924;12.204;2022-12-07T14:21:39;12.03;;;7.93;;
12451;SDS011;6291;48.924;12.204;2022-12-07T14:26:44;17.87;;;11.33;;
12451;SDS011;6291;48.924;12.204;2022-12-07T14:31:47;14.43;;;9.93;;
12451;SDS011;6291;48.924;12.204;2022-12-07T14:36:51;13.65;;;9.43;;
12451;SDS011;6291;48.924;12.204;2022-12-07T14:41:56;14.17;;;10.37;;
12451;SDS011;6291;48.924;12.204;2022-12-07T14:46:59;12.13;;;9.30;;
12451;SDS011;6291;48.924;12.204;2022-12-07T14:52:23;12.38;;;9.27;;
12451;SDS011;6291;48.924;12.204;2022-12-07T14:57:51;12.80;;;9.13;;
12451;SDS011;6291;48.924;12.204;2022-12-07T15:02:55;32.30;;;22.83;;
12451;SDS011;6291;48.924;12.204;2022-12-07T15:07:59;15.87;;;11.27;;
12451;SDS011;6291;48.924;12.204;2022-12-07T15:13:04;14.77;;;11.07;;
12451;SDS011;6291;48.924;12.204;2022-12-07T15:18:25;14.50;;;10.23;;
12451;SDS011;6291;48.924;12.204;2022-12-07T15:23:29;12.60;;;10.05;;
12451;SDS011;6291;48.924;12.204;2022-12-07T15:28:34;13.05;;;10.00;;
12451;SDS011;6291;48.924;12.204;2022-12-07T15:33:37;15.07;;;11.82;;
12451;SDS011;6291;48.924;12.204;2022-12-07T15:38:41;15.35;;;10.30;;
12451;SDS011;6291;48.924;12.204;2022-12-07T15:44:06;15.80;;;10.88;;
12451;SDS011;6291;48.924;12.204;2022-12-07T15:49:31;15.45;;;10.50;;
12451;SDS011;6291;48.924;12.204;2022-12-07T15:54:35;13.30;;;9.50;;
12451;SDS011;6291;48.924;12.204;2022-12-07T15:59:40;12.27;;;9.53;;
12451;SDS011;6291;48.924;12.204;2022-12-07T16:04:43;12.32;;;9.63;;
12451;SDS011;6291;48.924;12.204;2022-12-07T16:09:46;14.05;;;9.52;;
12451;SDS011;6291;48.924;12.204;2022-12-07T16:14:52;13.75;;;9.57;;
12451;SDS011;6291;48.924;12.204;2022-12-07T16:19:55;14.88;;;10.82;;
12451;SDS011;6291;48.924;12.204;2022-12-07T16:24:59;14.57;;;11.70;;
12451;SDS011;6291;48.924;12.204;2022-12-07T16:30:05;20.03;;;14.00;;
12451;SDS011;6291;48.924;12.204;2022-12-07T16:35:10;29.65;;;25.48;;
12451;SDS011;6291;48.924;12.204;2022-12-07T16:40:14;29.20;;;25.98;;
12451;SDS011;6291;48.924;12.204;2022-12-07T16:45:19;22.90;;;18.35;;
12451;SDS011;6291;48.924;12.204;2022-12-07T16:50:23;25.73;;;22.95;;
12451;SDS011;6291;48.924;12.204;2022-12-07T16:55:27;15.83;;;12.77;;
12451;SDS011;6291;48.924;12.204;2022-12-07T17:00:31;16.17;;;13.05;;
12451;SDS011;6291;48.924;12.204;2022-12-07T17:05:37;14.98;;;9.98;;
12451;SDS011;6291;48.924;12.204;2022-12-07T17:10:43;13.60;;;9.70;;
12451;SDS011;6291;48.924;12.204;2022-12-07T17:15:55;12.13;;;8.60;;
12451;SDS011;6291;48.924;12.204;2022-12-07T17:21:03;12.73;;;9.50;;
12451;SDS011;6291;48.924;12.204;2022-12-07T17:26:08;13.03;;;8.37;;
12451;SDS011;6291;48.924;12.204;2022-12-07T17:31:15;12.77;;;9.43;;
12451;SDS011;6291;48.924;12.204;2022-12-07T17:36:20;13.87;;;9.60;;
12451;SDS011;6291;48.924;12.204;2022-12-07T17:41:26;13.18;;;8.88;;
12451;SDS011;6291;48.924;12.204;2022-12-07T17:46:50;11.07;;;8.32;;
12451;SDS011;6291;48.924;12.204;2022-12-07T17:51:55;13.63;;;9.38;;
12451;SDS011;6291;48.924;12.204;2022-12-07T17:57:16;12.13;;;9.40;;
12451;SDS011;6291;48.924;12.204;2022-12-07T18:02:21;18.92;;;13.10;;
12451;SDS011;6291;48.924;12.204;2022-12-07T18:07:25;16.02;;;11.40;;
12451;SDS011;6291;48.924;12.204;2022-12-07T18:12:29;14.10;;;11.10;;
12451;SDS011;6291;48.924;12.204;2022-12-07T18:17:34;12.37;;;9.70;;
12451;SDS011;6291;48.924;12.204;2022-12-07T18:22:38;13.07;;;9.73;;
12451;SDS011;6291;48.924;12.204;2022-12-07T18:27:41;14.32;;;9.93;;
12451;SDS011;6291;48.924;12.204;2022-12-07T18:32:46;13.40;;;9.65;;
12451;SDS011;6291;48.924;12.204;2022-12-07T18:37:49;13.10;;;8.10;;
12451;SDS011;6291;48.924;12.204;2022-12-07T18:42:52;12.93;;;8.60;;
12451;SDS011;6291;48.924;12.204;2022-12-07T18:47:58;11.07;;;8.63;;
12451;SDS011;6291;48.924;12.204;2022-12-07T18:53:02;12.65;;;9.48;;
12451;SDS011;6291;48.924;12.204;2022-12-07T18:58:09;12.50;;;7.97;;
12451;SDS011;6291;48.924;12.204;2022-12-07T19:03:14;12.37;;;8.00;;
12451;SDS011;6291;48.924;12.204;2022-12-07T19:08:17;11.70;;;8.00;;
12451;SDS011;6291;48.924;12.204;2022-12-07T19:13:21;12.70;;;8.43;;
12451;SDS011;6291;48.924;12.204;2022-12-07T19:18:25;12.10;;;8.20;;
12451;SDS011;6291;48.924;12.204;2022-12-07T19:23:29;12.43;;;8.17;;
12451;SDS011;6291;48.924;12.204;2022-12-07T19:28:33;12.10;;;8.30;;
12451;SDS011;6291;48.924;12.204;2022-12-07T19:33:38;11.57;;;8.57;;
12451;SDS011;6291;48.924;12.204;2022-12-07T19:38:41;11.80;;;8.65;;
12451;SDS011;6291;48.924;12.204;2022-12-07T19:43:45;11.90;;;8.40;;
12451;SDS011;6291;48.924;12.204;2022-12-07T19:48:50;12.65;;;9.25;;
12451;SDS011;6291;48.924;12.204;2022-12-07T19:53:54;10.97;;;8.17;;
12451;SDS011;6291;48.924;12.204;2022-12-07T19:58:59;10.00;;;7.53;;
12451;SDS011;6291;48.924;12.204;2022-12-07T20:04:05;13.88;;;8.38;;
12451;SDS011;6291;48.924;12.204;2022-12-07T20:09:10;12.90;;;9.07;;
12451;SDS011;6291;48.924;12.204;2022-12-07T20:14:14;14.30;;;11.05;;
12451;SDS011;6291;48.924;12.204;2022-12-07T20:19:18;14.63;;;11.13;;
12451;SDS011;6291;48.924;12.204;2022-12-07T20:24:23;14.13;;;10.17;;
12451;SDS011;6291;48.924;12.204;2022-12-07T20:29:32;12.68;;;9.50;;
12451;SDS011;6291;48.924;12.204;2022-12-07T20:34:36;11.90;;;8.80;;
12451;SDS011;6291;48.924;12.204;2022-12-07T20:39:40;11.13;;;8.07;;
12451;SDS011;6291;48.924;12.204;2022-12-07T20:44:44;11.70;;;8.77;;
12451;SDS011;6291;48.924;12.204;2022-12-07T20:49:48;13.20;;;9.05;;
12451;SDS011;6291;48.924;12.204;2022-12-07T20:54:53;11.70;;;8.00;;
12451;SDS011;6291;48.924;12.204;2022-12-07T20:59:56;13.38;;;8.73;;
12451;SDS011;6291;48.924;12.204;2022-12-07T21:05:01;12.77;;;8.43;;
12451;SDS011;6291;48.924;12.204;2022-12-07T21:10:05;14.07;;;9.80;;
12451;SDS011;6291;48.924;12.204;2022-12-07T21:15:10;13.18;;;8.70;;
12451;SDS011;6291;48.924;12.204;2022-12-07T21:20:15;15.35;;;11.05;;
12451;SDS011;6291;48.924;12.204;2022-12-07T21:25:18;16.17;;;11.43;;
12451;SDS011;6291;48.924;12.204;2022-12-07T21:30:21;12.35;;;9.07;;
12451;SDS011;6291;48.924;12.204;2022-12-07T21:35:26;12.02;;;9.23;;
12451;SDS011;6291;48.924;12.204;2022-12-07T21:40:29;13.35;;;9.40;;
12451;SDS011;6291;48.924;12.204;2022-12-07T21:45:33;12.82;;;9.50;;
12451;SDS011;6291;48.924;12.204;2022-12-07T21:50:37;13.32;;;10.00;;
12451;SDS011;6291;48.924;12.204;2022-12-07T21:55:41;13.52;;;9.85;;
12451;SDS011;6291;48.924;12.204;2022-12-07T22:00:45;14.57;;;10.00;;
12451;SDS011;6291;48.924;12.204;2022-12-07T22:05:50;14.27;;;10.38;;
12451;SDS011;6291;48.924;12.204;2022-12-07T22:10:54;14.57;;;10.10;;
12451;SDS011;6291;48.924;12.204;2022-12-07T22:16:02;13.98;;;10.13;;
12451;SDS011;6291;48.924;12.204;2022-12-07T22:21:08;15.35;;;10.35;;
12451;SDS011;6291;48.924;12.204;2022-12-07T22:26:12;15.48;;;10.60;;
12451;SDS011;6291;48.924;12.204;2022-12-07T22:31:24;16.10;;;10.18;;
12451;SDS011;6291;48.924;12.204;2022-12-07T22:36:29;13.98;;;10.05;;
12451;SDS011;6291;48.924;12.204;2022-12-07T22:41:33;14.33;;;10.40;;
12451;SDS011;6291;48.924;12.204;2022-12-07T22:46:37;15.05;;;10.10;;
12451;SDS011;6291;48.924;12.204;2022-12-07T22:51:42;16.38;;;11.57;;
12451;SDS011;6291;48.924;12.204;2022-12-07T22:56:45;15.93;;;10.85;;
12451;SDS011;6291;48.924;12.204;2022-12-07T23:01:49;16.00;;;10.93;;
12451;SDS011;6291;48.924;12.204;2022-12-07T23:06:54;15.37;;;11.10;;
12451;SDS011;6291;48.924;12.204;2022-12-07T23:12:00;17.60;;;11.75;;
12451;SDS011;6291;48.924;12.204;2022-12-07T23:17:20;20.83;;;12.13;;
12451;SDS011;6291;48.924;12.204;2022-12-07T23:22:25;17.73;;;11.85;;
12451;SDS011;6291;48.924;12.204;2022-12-07T23:27:28;15.57;;;11.10;;
12451;SDS011;6291;48.924;12.204;2022-12-07T23:32:32;15.50;;;10.98;;
12451;SDS011;6291;48.924;12.204;2022-12-07T23:37:37;16.87;;;11.13;;
12451;SDS011;6291;48.924;12.204;2022-12-07T23:42:41;15.35;;;11.15;;
12451;SDS011;6291;48.924;12.204;2022-12-07T23:47:44;15.00;;;10.90;;
12451;SDS011;6291;48.924;12.204;2022-12-07T23:52:49;15.50;;;11.50;;
12451;SDS011;6291;48.924;12.204;2022-12-07T23:57:52;16.17;;;11.70;;
